sensor_id;sensor_type;location;lat;lon;timestamp;pressure;altitude;pressure_sealevel;temperature;humidity
29879;BME280;16752;53.364;-1.488;2022-08-06T00:00:38;101620.94;;;22.58;34.55
29879;BME280;16752;53.364;-1.488;2022-08-06T00:03:04;101617.44;;;22.58;34.74
29879;BME280;16752;53.364;-1.488;2022-08-06T00:05:32;101616.44;;;22.59;34.64
29879;BME280;16752;53.364;-1.488;2022-08-06T00:07:58;101612.25;;;22.56;34.75
29879;BME280;16752;53.364;-1.488;2022-08-06T00:10:24;101608.69;;;22.55;34.57
29879;BME280;16752;53.364;-1.488;2022-08-06T00:12:49;101609.69;;;22.54;34.82
29879;BME280;16752;53.364;-1.488;2022-08-06T00:15:16;101611.81;;;22.51;34.61
29879;BME280;16752;53.364;-1.488;2022-08-06T00:17:45;101610.59;;;22.45;35.10
29879;BME280;16752;53.364;-1.488;2022-08-06T00:20:12;101612.81;;;22.50;35.05
29879;BME280;16752;53.364;-1.488;2022-08-06T00:22:38;101619.53;;;22.54;35.11
29879;BME280;16752;53.364;-1.488;2022-08-06T00:25:04;101623.03;;;22.54;35.28
29879;BME280;16752;53.364;-1.488;2022-08-06T00:27:30;101627.69;;;22.52;35.31
29879;BME280;16752;53.364;-1.488;2022-08-06T00:29:55;101621.66;;;22.50;35.52
29879;BME280;16752;53.364;-1.488;2022-08-06T00:32:21;101628.69;;;22.51;35.33
29879;BME280;16752;53.364;-1.488;2022-08-06T00:34:47;101619.00;;;22.50;35.61
29879;BME280;16752;53.364;-1.488;2022-08-06T00:37:13;101622.81;;;22.48;35.63
29879;BME280;16752;53.364;-1.488;2022-08-06T00:39:39;101633.03;;;22.52;35.28
29879;BME280;16752;53.364;-1.488;2022-08-06T00:42:05;101623.78;;;22.47;35.69
29879;BME280;16752;53.364;-1.488;2022-08-06T00:44:30;101619.59;;;22.44;35.44
29879;BME280;16752;53.364;-1.488;2022-08-06T00:46:56;101619.28;;;22.47;35.65
29879;BME280;16752;53.364;-1.488;2022-08-06T00:49:21;101623.25;;;22.43;35.57
29879;BME280;16752;53.364;-1.488;2022-08-06T00:51:52;101620.03;;;22.40;35.65
29879;BME280;16752;53.364;-1.488;2022-08-06T00:54:23;101626.22;;;22.40;35.83
29879;BME280;16752;53.364;-1.488;2022-08-06T00:56:49;101621.03;;;22.39;35.96
29879;BME280;16752;53.364;-1.488;2022-08-06T00:59:15;101616.22;;;22.42;35.82
29879;BME280;16752;53.364;-1.488;2022-08-06T01:01:41;101626.66;;;22.36;35.82
29879;BME280;16752;53.364;-1.488;2022-08-06T01:04:07;101624.16;;;22.34;36.22
29879;BME280;16752;53.364;-1.488;2022-08-06T01:06:35;101627.78;;;22.33;36.26
29879;BME280;16752;53.364;-1.488;2022-08-06T01:09:01;101634.56;;;22.27;36.02
29879;BME280;16752;53.364;-1.488;2022-08-06T01:11:27;101632.47;;;22.21;36.13
29879;BME280;16752;53.364;-1.488;2022-08-06T01:13:53;101638.94;;;22.19;36.60
29879;BME280;16752;53.364;-1.488;2022-08-06T01:16:31;101638.94;;;22.19;36.58
29879;BME280;16752;53.364;-1.488;2022-08-06T01:26:36;101632.22;;;22.05;37.13
29879;BME280;16752;53.364;-1.488;2022-08-06T01:34:26;101639.41;;;21.95;37.15
29879;BME280;16752;53.364;-1.488;2022-08-06T01:36:59;101630.69;;;21.93;36.98
29879;BME280;16752;53.364;-1.488;2022-08-06T01:39:28;101646.56;;;21.94;37.19
29879;BME280;16752;53.364;-1.488;2022-08-06T01:41:55;101642.75;;;21.97;37.48
29879;BME280;16752;53.364;-1.488;2022-08-06T01:44:23;101643.31;;;22.01;37.07
29879;BME280;16752;53.364;-1.488;2022-08-06T01:46:50;101643.59;;;21.98;37.28
29879;BME280;16752;53.364;-1.488;2022-08-06T01:49:22;101640.25;;;21.95;37.33
29879;BME280;16752;53.364;-1.488;2022-08-06T01:51:48;101636.03;;;21.93;37.34
29879;BME280;16752;53.364;-1.488;2022-08-06T01:54:16;101638.00;;;21.91;37.52
29879;BME280;16752;53.364;-1.488;2022-08-06T01:56:42;101638.13;;;21.89;37.56
29879;BME280;16752;53.364;-1.488;2022-08-06T01:59:10;101629.56;;;21.86;37.54
29879;BME280;16752;53.364;-1.488;2022-08-06T02:01:38;101634.22;;;21.84;37.52
29879;BME280;16752;53.364;-1.488;2022-08-06T02:04:05;101637.72;;;21.84;37.43
29879;BME280;16752;53.364;-1.488;2022-08-06T02:06:32;101627.88;;;21.85;37.69
29879;BME280;16752;53.364;-1.488;2022-08-06T02:09:00;101630.84;;;21.82;37.67
29879;BME280;16752;53.364;-1.488;2022-08-06T02:11:25;101632.38;;;21.84;37.72
29879;BME280;16752;53.364;-1.488;2022-08-06T02:14:12;101629.56;;;21.86;37.47
29879;BME280;16752;53.364;-1.488;2022-08-06T02:16:39;101629.72;;;21.84;37.75
29879;BME280;16752;53.364;-1.488;2022-08-06T02:21:48;101631.53;;;21.84;37.39
29879;BME280;16752;53.364;-1.488;2022-08-06T02:24:16;101625.66;;;21.80;37.42
29879;BME280;16752;53.364;-1.488;2022-08-06T02:26:44;101628.88;;;21.84;37.34
29879;BME280;16752;53.364;-1.488;2022-08-06T02:29:10;101629.72;;;21.84;37.46
29879;BME280;16752;53.364;-1.488;2022-08-06T02:31:43;101634.63;;;21.79;37.18
29879;BME280;16752;53.364;-1.488;2022-08-06T02:34:09;101633.94;;;21.77;37.52
29879;BME280;16752;53.364;-1.488;2022-08-06T02:36:42;101637.75;;;21.75;37.78
29879;BME280;16752;53.364;-1.488;2022-08-06T02:39:16;101638.28;;;21.69;37.49
29879;BME280;16752;53.364;-1.488;2022-08-06T02:41:44;101639.72;;;21.63;37.56
29879;BME280;16752;53.364;-1.488;2022-08-06T02:44:12;101647.56;;;21.55;37.66
29879;BME280;16752;53.364;-1.488;2022-08-06T02:46:43;101640.41;;;21.46;38.02
29879;BME280;16752;53.364;-1.488;2022-08-06T02:49:12;101640.00;;;21.41;38.11
29879;BME280;16752;53.364;-1.488;2022-08-06T02:51:39;101643.91;;;21.37;38.25
29879;BME280;16752;53.364;-1.488;2022-08-06T02:54:07;101642.53;;;21.32;38.11
29879;BME280;16752;53.364;-1.488;2022-08-06T02:56:36;101651.50;;;21.31;38.07
29879;BME280;16752;53.364;-1.488;2022-08-06T02:59:02;101644.28;;;21.22;38.17
29879;BME280;16752;53.364;-1.488;2022-08-06T03:01:34;101650.88;;;21.18;38.04
29879;BME280;16752;53.364;-1.488;2022-08-06T03:04:00;101648.34;;;21.17;38.05
29879;BME280;16752;53.364;-1.488;2022-08-06T03:06:29;101645.84;;;21.15;38.26
29879;BME280;16752;53.364;-1.488;2022-08-06T03:08:55;101652.44;;;21.11;38.46
29879;BME280;16752;53.364;-1.488;2022-08-06T03:11:21;101646.94;;;21.13;38.43
29879;BME280;16752;53.364;-1.488;2022-08-06T03:13:48;101645.56;;;21.09;38.62
29879;BME280;16752;53.364;-1.488;2022-08-06T03:16:14;101640.22;;;21.09;38.74
29879;BME280;16752;53.364;-1.488;2022-08-06T03:18:41;101646.66;;;21.06;38.46
29879;BME280;16752;53.364;-1.488;2022-08-06T03:21:07;101642.03;;;21.08;38.42
29879;BME280;16752;53.364;-1.488;2022-08-06T03:23:33;101647.50;;;21.07;38.23
29879;BME280;16752;53.364;-1.488;2022-08-06T03:25:59;101645.56;;;21.09;38.22
29879;BME280;16752;53.364;-1.488;2022-08-06T03:28:25;101639.66;;;21.05;38.20
29879;BME280;16752;53.364;-1.488;2022-08-06T03:30:51;101652.00;;;21.06;38.11
29879;BME280;16752;53.364;-1.488;2022-08-06T03:33:18;101643.31;;;21.04;38.16
29879;BME280;16752;53.364;-1.488;2022-08-06T03:35:44;101647.75;;;21.03;38.34
29879;BME280;16752;53.364;-1.488;2022-08-06T03:38:13;101644.44;;;21.11;37.96
29879;BME280;16752;53.364;-1.488;2022-08-06T03:40:46;101650.47;;;21.13;37.91
29879;BME280;16752;53.364;-1.488;2022-08-06T03:43:12;101657.19;;;21.17;37.27
29879;BME280;16752;53.364;-1.488;2022-08-06T03:45:38;101658.47;;;21.13;37.44
29879;BME280;16752;53.364;-1.488;2022-08-06T03:48:11;101657.19;;;21.17;37.74
29879;BME280;16752;53.364;-1.488;2022-08-06T03:50:40;101655.94;;;21.21;37.63
29879;BME280;16752;53.364;-1.488;2022-08-06T03:53:10;101653.75;;;21.26;37.52
29879;BME280;16752;53.364;-1.488;2022-08-06T03:55:57;101654.59;;;21.27;37.24
29879;BME280;16752;53.364;-1.488;2022-08-06T03:58:24;101653.31;;;21.31;37.34
29879;BME280;16752;53.364;-1.488;2022-08-06T04:00:51;101663.00;;;21.32;37.60
29879;BME280;16752;53.364;-1.488;2022-08-06T04:03:20;101666.09;;;21.37;37.31
29879;BME280;16752;53.364;-1.488;2022-08-06T04:05:46;101659.22;;;21.34;37.14
29879;BME280;16752;53.364;-1.488;2022-08-06T04:08:12;101659.34;;;21.33;37.22
29879;BME280;16752;53.364;-1.488;2022-08-06T04:10:39;101659.91;;;21.37;37.16
29879;BME280;16752;53.364;-1.488;2022-08-06T04:13:07;101656.28;;;21.38;37.44
29879;BME280;16752;53.364;-1.488;2022-08-06T04:15:34;101664.69;;;21.33;37.22
29879;BME280;16752;53.364;-1.488;2022-08-06T04:18:00;101665.53;;;21.33;36.97
29879;BME280;16752;53.364;-1.488;2022-08-06T04:20:26;101658.66;;;21.31;37.39
29879;BME280;16752;53.364;-1.488;2022-08-06T04:22:54;101656.84;;;21.31;37.27
29879;BME280;16752;53.364;-1.488;2022-08-06T04:25:21;101665.53;;;21.33;37.12
29879;BME280;16752;53.364;-1.488;2022-08-06T04:27:48;101666.66;;;21.41;36.91
29879;BME280;16752;53.364;-1.488;2022-08-06T04:30:14;101682.66;;;21.41;36.74
29879;BME280;16752;53.364;-1.488;2022-08-06T04:32:41;101679.41;;;21.37;37.22
29879;BME280;16752;53.364;-1.488;2022-08-06T04:35:09;101680.41;;;21.36;36.78
29879;BME280;16752;53.364;-1.488;2022-08-06T04:37:57;101675.91;;;21.37;36.83
29879;BME280;16752;53.364;-1.488;2022-08-06T04:40:23;101677.72;;;21.36;36.94
29879;BME280;16752;53.364;-1.488;2022-08-06T04:42:50;101674.22;;;21.35;36.91
29879;BME280;16752;53.364;-1.488;2022-08-06T04:45:16;101670.56;;;21.37;36.78
29879;BME280;16752;53.364;-1.488;2022-08-06T04:47:45;101681.53;;;21.33;37.06
29879;BME280;16752;53.364;-1.488;2022-08-06T04:50:12;101676.06;;;21.35;37.23
29879;BME280;16752;53.364;-1.488;2022-08-06T04:52:38;101678.00;;;21.33;37.10
29879;BME280;16752;53.364;-1.488;2022-08-06T04:55:03;101676.19;;;21.33;37.07
29879;BME280;16752;53.364;-1.488;2022-08-06T04:57:29;101679.13;;;21.30;37.46
29879;BME280;16752;53.364;-1.488;2022-08-06T04:59:55;101684.63;;;21.29;37.17
29879;BME280;16752;53.364;-1.488;2022-08-06T05:02:20;101690.22;;;21.26;37.42
29879;BME280;16752;53.364;-1.488;2022-08-06T05:04:46;101698.31;;;21.24;37.56
29879;BME280;16752;53.364;-1.488;2022-08-06T05:07:19;101699.41;;;21.22;37.66
29879;BME280;16752;53.364;-1.488;2022-08-06T05:09:45;101701.09;;;21.13;37.80
29879;BME280;16752;53.364;-1.488;2022-08-06T05:12:13;101698.28;;;21.05;37.79
29879;BME280;16752;53.364;-1.488;2022-08-06T05:14:44;101697.53;;;21.03;38.02
29879;BME280;16752;53.364;-1.488;2022-08-06T05:17:13;101704.69;;;21.02;37.77
29879;BME280;16752;53.364;-1.488;2022-08-06T05:19:43;101697.97;;;20.98;37.88
29879;BME280;16752;53.364;-1.488;2022-08-06T05:22:12;101706.66;;;21.00;38.30
29879;BME280;16752;53.364;-1.488;2022-08-06T05:24:38;101699.63;;;20.99;38.03
29879;BME280;16752;53.364;-1.488;2022-08-06T05:27:05;101707.50;;;21.01;38.24
29879;BME280;16752;53.364;-1.488;2022-08-06T05:29:30;101705.28;;;21.06;38.70
29879;BME280;16752;53.364;-1.488;2022-08-06T05:31:59;101714.84;;;21.09;38.55
29879;BME280;16752;53.364;-1.488;2022-08-06T05:34:26;101714.25;;;21.05;38.31
29879;BME280;16752;53.364;-1.488;2022-08-06T05:36:52;101717.91;;;21.04;38.35
29879;BME280;16752;53.364;-1.488;2022-08-06T05:39:17;101717.78;;;21.05;38.48
29879;BME280;16752;53.364;-1.488;2022-08-06T05:41:45;101712.31;;;21.07;38.75
29879;BME280;16752;53.364;-1.488;2022-08-06T05:44:11;101712.03;;;21.10;38.46
29879;BME280;16752;53.364;-1.488;2022-08-06T05:46:38;101711.47;;;21.16;38.44
29879;BME280;16752;53.364;-1.488;2022-08-06T05:49:07;101714.69;;;21.20;38.65
29879;BME280;16752;53.364;-1.488;2022-08-06T05:54:36;101727.13;;;21.30;38.87
29879;BME280;16752;53.364;-1.488;2022-08-06T05:57:06;101727.13;;;21.40;38.68
29879;BME280;16752;53.364;-1.488;2022-08-06T05:59:35;101726.72;;;21.45;38.80
29879;BME280;16752;53.364;-1.488;2022-08-06T06:02:04;101720.56;;;21.54;38.64
29879;BME280;16752;53.364;-1.488;2022-08-06T06:04:31;101740.50;;;21.59;38.72
29879;BME280;16752;53.364;-1.488;2022-08-06T06:06:56;101737.13;;;21.67;38.81
29879;BME280;16752;53.364;-1.488;2022-08-06T06:09:22;101740.66;;;21.77;38.00
29879;BME280;16752;53.364;-1.488;2022-08-06T06:11:48;101744.16;;;21.87;37.88
29879;BME280;16752;53.364;-1.488;2022-08-06T06:16:50;101751.19;;;22.08;37.74
29879;BME280;16752;53.364;-1.488;2022-08-06T06:19:26;101749.53;;;22.16;37.62
29879;BME280;16752;53.364;-1.488;2022-08-06T06:24:57;101752.31;;;22.34;36.89
29879;BME280;16752;53.364;-1.488;2022-08-06T06:27:24;101752.41;;;22.42;36.69
29879;BME280;16752;53.364;-1.488;2022-08-06T06:30:03;101753.06;;;22.54;36.72
29879;BME280;16752;53.364;-1.488;2022-08-06T06:32:40;101750.41;;;22.64;36.77
29879;BME280;16752;53.364;-1.488;2022-08-06T06:37:43;101746.69;;;22.84;36.20
29879;BME280;16752;53.364;-1.488;2022-08-06T06:42:56;101748.94;;;23.16;35.59
29879;BME280;16752;53.364;-1.488;2022-08-06T06:45:30;101742.69;;;23.25;35.32
29879;BME280;16752;53.364;-1.488;2022-08-06T06:47:58;101751.19;;;23.38;35.15
29879;BME280;16752;53.364;-1.488;2022-08-06T06:50:26;101749.31;;;23.48;34.82
29879;BME280;16752;53.364;-1.488;2022-08-06T06:52:54;101752.63;;;23.60;34.67
29879;BME280;16752;53.364;-1.488;2022-08-06T07:00:37;101764.50;;;23.93;33.78
29879;BME280;16752;53.364;-1.488;2022-08-06T07:03:05;101769.91;;;24.01;33.45
29879;BME280;16752;53.364;-1.488;2022-08-06T07:05:31;101764.47;;;24.11;33.04
29879;BME280;16752;53.364;-1.488;2022-08-06T07:07:58;101769.56;;;24.22;32.77
29879;BME280;16752;53.364;-1.488;2022-08-06T07:10:24;101764.03;;;24.33;32.41
29879;BME280;16752;53.364;-1.488;2022-08-06T07:13:00;101764.22;;;24.40;32.47
29879;BME280;16752;53.364;-1.488;2022-08-06T07:15:28;101769.63;;;24.48;32.40
29879;BME280;16752;53.364;-1.488;2022-08-06T07:17:54;101771.06;;;24.60;32.65
29879;BME280;16752;53.364;-1.488;2022-08-06T07:20:25;101775.16;;;24.73;32.37
29879;BME280;16752;53.364;-1.488;2022-08-06T07:28:38;101770.22;;;24.94;31.46
29879;BME280;16752;53.364;-1.488;2022-08-06T07:31:05;101762.44;;;25.01;31.14
29879;BME280;16752;53.364;-1.488;2022-08-06T07:33:32;101767.50;;;25.12;31.24
29879;BME280;16752;53.364;-1.488;2022-08-06T07:35:58;101763.69;;;25.22;31.05
29879;BME280;16752;53.364;-1.488;2022-08-06T07:38:26;101776.47;;;25.37;30.78
29879;BME280;16752;53.364;-1.488;2022-08-06T07:40:52;101767.78;;;25.43;30.82
29879;BME280;16752;53.364;-1.488;2022-08-06T07:43:26;101771.16;;;25.53;30.71
29879;BME280;16752;53.364;-1.488;2022-08-06T07:45:53;101772.69;;;25.64;30.43
29879;BME280;16752;53.364;-1.488;2022-08-06T07:48:22;101771.22;;;25.69;30.20
29879;BME280;16752;53.364;-1.488;2022-08-06T07:50:49;101786.00;;;25.81;30.30
29879;BME280;16752;53.364;-1.488;2022-08-06T07:53:15;101778.47;;;25.93;29.57
29879;BME280;16752;53.364;-1.488;2022-08-06T07:56:03;101782.16;;;25.92;29.88
29879;BME280;16752;53.364;-1.488;2022-08-06T07:58:29;101783.69;;;26.11;29.74
29879;BME280;16752;53.364;-1.488;2022-08-06T08:00:58;101791.88;;;26.34;29.44
29879;BME280;16752;53.364;-1.488;2022-08-06T08:06:45;101785.69;;;26.41;28.99
29879;BME280;16752;53.364;-1.488;2022-08-06T08:09:15;101786.19;;;26.20;29.01
29879;BME280;16752;53.364;-1.488;2022-08-06T08:11:41;101791.88;;;26.01;29.42
29879;BME280;16752;53.364;-1.488;2022-08-06T08:14:09;101795.22;;;25.79;30.04
29879;BME280;16752;53.364;-1.488;2022-08-06T08:19:33;101792.22;;;25.82;30.53
29879;BME280;16752;53.364;-1.488;2022-08-06T08:22:00;101791.22;;;26.24;30.48
29879;BME280;16752;53.364;-1.488;2022-08-06T08:24:26;101785.31;;;26.61;29.76
29879;BME280;16752;53.364;-1.488;2022-08-06T08:26:54;101792.69;;;26.67;28.92
29879;BME280;16752;53.364;-1.488;2022-08-06T08:33:30;101784.16;;;26.71;29.01
29879;BME280;16752;53.364;-1.488;2022-08-06T08:41:19;101783.41;;;27.02;28.40
29879;BME280;16752;53.364;-1.488;2022-08-06T08:44:02;101786.44;;;26.91;27.84
29879;BME280;16752;53.364;-1.488;2022-08-06T08:49:40;101772.34;;;27.28;27.25
29879;BME280;16752;53.364;-1.488;2022-08-06T08:52:37;101770.41;;;27.45;26.48
29879;BME280;16752;53.364;-1.488;2022-08-06T08:55:11;101778.84;;;27.73;25.40
29879;BME280;16752;53.364;-1.488;2022-08-06T08:57:44;101772.38;;;28.05;26.00
29879;BME280;16752;53.364;-1.488;2022-08-06T09:00:10;101770.63;;;28.35;24.55
29879;BME280;16752;53.364;-1.488;2022-08-06T09:02:45;101758.56;;;28.45;24.51
29879;BME280;16752;53.364;-1.488;2022-08-06T09:05:31;101769.03;;;28.40;24.79
29879;BME280;16752;53.364;-1.488;2022-08-06T09:07:57;101768.13;;;28.10;24.89
29879;BME280;16752;53.364;-1.488;2022-08-06T09:10:33;101773.94;;;27.76;25.24
29879;BME280;16752;53.364;-1.488;2022-08-06T09:13:01;101777.41;;;27.54;25.78
29879;BME280;16752;53.364;-1.488;2022-08-06T09:15:40;101773.34;;;27.35;25.38
29879;BME280;16752;53.364;-1.488;2022-08-06T09:18:27;101774.19;;;27.66;26.18
29879;BME280;16752;53.364;-1.488;2022-08-06T09:27:02;101781.47;;;28.64;24.32
29879;BME280;16752;53.364;-1.488;2022-08-06T09:29:28;101780.31;;;28.58;25.31
29879;BME280;16752;53.364;-1.488;2022-08-06T09:31:58;101785.00;;;28.65;24.96
29879;BME280;16752;53.364;-1.488;2022-08-06T09:34:38;101783.31;;;28.64;24.95
29879;BME280;16752;53.364;-1.488;2022-08-06T09:37:04;101793.44;;;28.61;25.14
29879;BME280;16752;53.364;-1.488;2022-08-06T09:39:34;101783.53;;;28.92;24.57
29879;BME280;16752;53.364;-1.488;2022-08-06T09:42:45;101789.91;;;29.35;23.85
29879;BME280;16752;53.364;-1.488;2022-08-06T09:45:21;101789.88;;;29.49;22.89
29879;BME280;16752;53.364;-1.488;2022-08-06T09:48:04;101784.06;;;29.67;22.66
29879;BME280;16752;53.364;-1.488;2022-08-06T09:50:38;101785.22;;;30.01;22.50
29879;BME280;16752;53.364;-1.488;2022-08-06T09:53:03;101789.75;;;30.15;21.84
29879;BME280;16752;53.364;-1.488;2022-08-06T09:55:51;101793.63;;;30.34;21.49
29879;BME280;16752;53.364;-1.488;2022-08-06T09:58:33;101791.25;;;30.46;22.15
29879;BME280;16752;53.364;-1.488;2022-08-06T10:01:12;101792.94;;;30.53;21.60
29879;BME280;16752;53.364;-1.488;2022-08-06T10:03:41;101795.84;;;30.52;21.92
29879;BME280;16752;53.364;-1.488;2022-08-06T10:06:12;101792.09;;;30.53;21.95
29879;BME280;16752;53.364;-1.488;2022-08-06T10:08:38;101797.13;;;30.56;22.03
29879;BME280;16752;53.364;-1.488;2022-08-06T10:11:04;101794.81;;;30.25;21.45
29879;BME280;16752;53.364;-1.488;2022-08-06T10:16:17;101795.84;;;30.02;22.02
29879;BME280;16752;53.364;-1.488;2022-08-06T10:18:44;101792.16;;;29.89;22.93
29879;BME280;16752;53.364;-1.488;2022-08-06T10:21:17;101795.00;;;30.02;22.42
29879;BME280;16752;53.364;-1.488;2022-08-06T10:23:54;101801.78;;;30.13;22.52
29879;BME280;16752;53.364;-1.488;2022-08-06T10:29:38;101795.50;;;30.33;22.38
29879;BME280;16752;53.364;-1.488;2022-08-06T10:32:05;101801.63;;;30.42;21.98
29879;BME280;16752;53.364;-1.488;2022-08-06T10:35:00;101799.66;;;30.08;22.57
29879;BME280;16752;53.364;-1.488;2022-08-06T10:37:26;101798.00;;;30.07;22.81
29879;BME280;16752;53.364;-1.488;2022-08-06T10:39:59;101802.69;;;30.20;22.62
29879;BME280;16752;53.364;-1.488;2022-08-06T10:42:45;101794.13;;;30.16;22.58
29879;BME280;16752;53.364;-1.488;2022-08-06T10:45:16;101789.75;;;30.15;22.53
29879;BME280;16752;53.364;-1.488;2022-08-06T10:47:50;101786.06;;;30.23;22.46
29879;BME280;16752;53.364;-1.488;2022-08-06T10:50:17;101779.59;;;30.45;22.05
29879;BME280;16752;53.364;-1.488;2022-08-06T10:52:43;101779.63;;;30.52;21.83
29879;BME280;16752;53.364;-1.488;2022-08-06T10:55:09;101788.03;;;30.35;22.32
29879;BME280;16752;53.364;-1.488;2022-08-06T10:57:38;101791.78;;;30.13;22.59
29879;BME280;16752;53.364;-1.488;2022-08-06T11:00:06;101794.13;;;29.95;22.42
29879;BME280;16752;53.364;-1.488;2022-08-06T11:05:05;101781.88;;;29.41;23.06
29879;BME280;16752;53.364;-1.488;2022-08-06T11:15:15;101782.38;;;29.66;23.35
29879;BME280;16752;53.364;-1.488;2022-08-06T11:17:44;101775.44;;;29.57;23.61
29879;BME280;16752;53.364;-1.488;2022-08-06T11:22:57;101772.44;;;29.01;23.65
29879;BME280;16752;53.364;-1.488;2022-08-06T11:25:46;101773.91;;;29.33;23.98
29879;BME280;16752;53.364;-1.488;2022-08-06T11:28:16;101778.16;;;29.78;23.58
29879;BME280;16752;53.364;-1.488;2022-08-06T11:30:45;101773.47;;;30.36;23.02
29879;BME280;16752;53.364;-1.488;2022-08-06T11:33:17;101776.00;;;30.66;22.43
29879;BME280;16752;53.364;-1.488;2022-08-06T11:36:07;101768.81;;;30.52;22.33
29879;BME280;16752;53.364;-1.488;2022-08-06T11:41:19;101769.16;;;30.42;22.11
29879;BME280;16752;53.364;-1.488;2022-08-06T11:46:29;101777.53;;;30.19;23.01
29879;BME280;16752;53.364;-1.488;2022-08-06T11:49:17;101772.25;;;30.11;23.33
29879;BME280;16752;53.364;-1.488;2022-08-06T11:51:51;101777.50;;;29.98;22.86
29879;BME280;16752;53.364;-1.488;2022-08-06T11:54:27;101769.72;;;29.67;22.94
29879;BME280;16752;53.364;-1.488;2022-08-06T11:59:27;101778.47;;;29.33;23.50
29879;BME280;16752;53.364;-1.488;2022-08-06T12:01:54;101771.88;;;29.06;24.61
29879;BME280;16752;53.364;-1.488;2022-08-06T12:07:20;101765.03;;;28.88;24.93
29879;BME280;16752;53.364;-1.488;2022-08-06T12:10:00;101759.22;;;29.06;24.60
29879;BME280;16752;53.364;-1.488;2022-08-06T12:14:58;101752.88;;;29.29;24.54
29879;BME280;16752;53.364;-1.488;2022-08-06T12:17:25;101755.72;;;29.42;24.69
29879;BME280;16752;53.364;-1.488;2022-08-06T12:19:52;101755.13;;;29.61;24.55
29879;BME280;16752;53.364;-1.488;2022-08-06T12:22:19;101758.59;;;29.98;23.94
29879;BME280;16752;53.364;-1.488;2022-08-06T12:24:48;101755.91;;;30.19;24.40
29879;BME280;16752;53.364;-1.488;2022-08-06T12:27:19;101757.13;;;30.45;23.98
29879;BME280;16752;53.364;-1.488;2022-08-06T12:29:48;101756.53;;;30.56;23.80
29879;BME280;16752;53.364;-1.488;2022-08-06T12:32:22;101756.28;;;30.44;23.72
29879;BME280;16752;53.364;-1.488;2022-08-06T12:34:48;101757.41;;;30.28;23.48
29879;BME280;16752;53.364;-1.488;2022-08-06T12:37:32;101757.75;;;30.19;23.49
29879;BME280;16752;53.364;-1.488;2022-08-06T12:39:57;101761.13;;;29.78;23.88
29879;BME280;16752;53.364;-1.488;2022-08-06T12:42:42;101756.66;;;29.92;23.89
29879;BME280;16752;53.364;-1.488;2022-08-06T12:45:08;101756.13;;;30.03;23.74
29879;BME280;16752;53.364;-1.488;2022-08-06T12:47:34;101758.31;;;29.93;23.92
29879;BME280;16752;53.364;-1.488;2022-08-06T12:50:00;101756.13;;;30.03;23.82
29879;BME280;16752;53.364;-1.488;2022-08-06T12:52:26;101746.31;;;29.95;23.80
29879;BME280;16752;53.364;-1.488;2022-08-06T12:54:52;101744.69;;;30.01;23.85
29879;BME280;16752;53.364;-1.488;2022-08-06T12:57:27;101747.78;;;30.19;23.97
29879;BME280;16752;53.364;-1.488;2022-08-06T12:59:56;101745.44;;;30.37;23.93
29879;BME280;16752;53.364;-1.488;2022-08-06T13:02:27;101743.81;;;30.50;23.47
29879;BME280;16752;53.364;-1.488;2022-08-06T13:05:04;101746.03;;;30.61;23.41
29879;BME280;16752;53.364;-1.488;2022-08-06T13:07:35;101738.78;;;30.68;23.80
29879;BME280;16752;53.364;-1.488;2022-08-06T13:10:01;101749.28;;;30.56;23.63
29879;BME280;16752;53.364;-1.488;2022-08-06T13:12:37;101744.31;;;30.60;23.73
29879;BME280;16752;53.364;-1.488;2022-08-06T13:15:11;101745.06;;;30.47;24.11
29879;BME280;16752;53.364;-1.488;2022-08-06T13:17:36;101744.97;;;30.34;24.03
29879;BME280;16752;53.364;-1.488;2022-08-06T13:20:02;101742.47;;;30.32;24.61
29879;BME280;16752;53.364;-1.488;2022-08-06T13:22:28;101739.56;;;30.06;24.81
29879;BME280;16752;53.364;-1.488;2022-08-06T13:25:09;101742.25;;;30.06;25.07
29879;BME280;16752;53.364;-1.488;2022-08-06T13:27:38;101740.97;;;30.02;25.16
29879;BME280;16752;53.364;-1.488;2022-08-06T13:30:07;101739.28;;;30.01;25.16
29879;BME280;16752;53.364;-1.488;2022-08-06T13:32:34;101734.28;;;29.98;24.93
29879;BME280;16752;53.364;-1.488;2022-08-06T13:35:05;101741.22;;;30.07;25.44
29879;BME280;16752;53.364;-1.488;2022-08-06T13:40:08;101737.00;;;29.76;25.12
29879;BME280;16752;53.364;-1.488;2022-08-06T13:42:46;101735.13;;;29.77;25.11
29879;BME280;16752;53.364;-1.488;2022-08-06T13:45:26;101725.53;;;29.96;24.92
29879;BME280;16752;53.364;-1.488;2022-08-06T13:48:05;101696.94;;;30.08;24.93
29879;BME280;16752;53.364;-1.488;2022-08-06T13:50:42;101723.84;;;30.51;24.63
29879;BME280;16752;53.364;-1.488;2022-08-06T13:55:50;101728.75;;;31.10;24.07
29879;BME280;16752;53.364;-1.488;2022-08-06T13:58:16;101727.53;;;31.12;23.84
29879;BME280;16752;53.364;-1.488;2022-08-06T14:00:43;101725.22;;;31.02;23.76
29879;BME280;16752;53.364;-1.488;2022-08-06T14:03:14;101735.31;;;30.81;24.27
29879;BME280;16752;53.364;-1.488;2022-08-06T14:05:41;101733.75;;;30.65;24.24
29879;BME280;16752;53.364;-1.488;2022-08-06T14:08:07;101741.19;;;30.28;24.17
29879;BME280;16752;53.364;-1.488;2022-08-06T14:10:33;101740.84;;;30.10;24.49
29879;BME280;16752;53.364;-1.488;2022-08-06T14:12:59;101738.75;;;29.91;24.67
29879;BME280;16752;53.364;-1.488;2022-08-06T14:18:43;101744.19;;;29.69;24.43
29879;BME280;16752;53.364;-1.488;2022-08-06T14:21:12;101739.09;;;29.81;25.09
29879;BME280;16752;53.364;-1.488;2022-08-06T14:23:38;101733.88;;;30.01;24.71
29879;BME280;16752;53.364;-1.488;2022-08-06T14:26:04;101730.66;;;30.12;24.22
29879;BME280;16752;53.364;-1.488;2022-08-06T14:28:36;101723.28;;;30.27;24.35
29879;BME280;16752;53.364;-1.488;2022-08-06T14:31:10;101734.16;;;30.62;23.99
29879;BME280;16752;53.364;-1.488;2022-08-06T14:34:04;101727.00;;;30.82;23.31
29879;BME280;16752;53.364;-1.488;2022-08-06T14:37:09;101718.72;;;30.97;23.05
29879;BME280;16752;53.364;-1.488;2022-08-06T14:39:37;101718.34;;;31.13;23.33